Time;durP1;ratioP1;P1;durP2;ratioP2;P2;SDS_P1;SDS_P2;PMS_P1;PMS_P2;Temp;Humidity;BMP_temperature;BMP_pressure;BME280_temperature;BME280_humidity;BME280_pressure;Samples;Min_cycle;Max_cycle;Signal;HPM_P1;HPM_P2
2022/04/11 00:00:45;;;;;;;1.35;1.00;;;;;;;;;;7404651;19;20010;-82
2022/04/11 00:03:11;;;;;;;2.70;1.45;;;;;;;;;;7404972;19;20136;-81
2022/04/11 00:05:36;;;;;;;1.80;0.98;;;;;;;;;;7406833;19;20006;-82
2022/04/11 00:08:02;;;;;;;1.92;1.27;;;;;;;;;;7402124;19;20368;-81
2022/04/11 00:10:27;;;;;;;1.75;1.35;;;;;;;;;;7399589;19;20311;-80
2022/04/11 00:13:03;;;;;;;2.78;1.33;;;;;;;;;;7399814;19;20006;-81
2022/04/11 00:15:29;;;;;;;1.92;1.30;;;;;;;;;;7396859;19;20154;-81
2022/04/11 00:17:54;;;;;;;1.85;1.33;;;;;;;;;;7400145;19;20010;-81
2022/04/11 00:20:20;;;;;;;1.67;1.30;;;;;;;;;;7398391;19;20030;-81
2022/04/11 00:22:45;;;;;;;2.50;1.38;;;;;;;;;;7398442;19;20583;-81
2022/04/11 00:25:10;;;;;;;2.05;1.40;;;;;;;;;;7398636;19;20036;-81
2022/04/11 00:27:35;;;;;;;1.35;1.00;;;;;;;;;;7400102;19;20002;-82
2022/04/11 00:30:01;;;;;;;2.25;1.38;;;;;;;;;;7397904;19;20855;-81
2022/04/11 00:32:26;;;;;;;2.97;1.42;;;;;;;;;;7399225;19;20009;-81
2022/04/11 00:34:51;;;;;;;3.08;1.45;;;;;;;;;;7399091;19;19995;-81
2022/04/11 00:37:17;;;;;;;2.05;1.42;;;;;;;;;;7400469;19;19995;-81
2022/04/11 00:39:43;;;;;;;1.55;1.23;;;;;;;;;;7396445;19;20965;-81
2022/04/11 00:42:14;;;;;;;1.45;1.23;;;;;;;;;;7397378;19;20016;-81
2022/04/11 00:44:39;;;;;;;2.13;1.48;;;;;;;;;;7397256;19;20003;-81
2022/04/11 00:47:05;;;;;;;2.65;1.38;;;;;;;;;;7397575;19;20005;-81
2022/04/11 00:49:30;;;;;;;2.40;1.27;;;;;;;;;;7402744;19;20012;-81
2022/04/11 00:51:56;;;;;;;2.35;1.63;;;;;;;;;;7399613;19;20035;-81
2022/04/11 00:54:22;;;;;;;2.00;1.35;;;;;;;;;;7400213;19;20110;-81
2022/04/11 00:56:47;;;;;;;1.83;1.20;;;;;;;;;;7399916;19;20331;-81
2022/04/11 00:59:15;;;;;;;1.65;1.13;;;;;;;;;;7399665;19;20015;-81
2022/04/11 01:01:41;;;;;;;1.33;1.17;;;;;;;;;;7400947;19;19998;-82
2022/04/11 01:04:06;;;;;;;1.70;1.35;;;;;;;;;;7398284;19;20006;-81
2022/04/11 01:06:31;;;;;;;2.55;1.30;;;;;;;;;;7400772;19;20009;-81
2022/04/11 01:08:57;;;;;;;2.05;1.17;;;;;;;;;;7400235;19;20426;-81
2022/04/11 01:11:23;;;;;;;2.20;1.17;;;;;;;;;;7400728;19;20114;-81
2022/04/11 01:13:48;;;;;;;3.42;1.45;;;;;;;;;;7401010;19;19995;-81
2022/04/11 01:16:13;;;;;;;2.00;1.40;;;;;;;;;;7401018;19;20002;-81
2022/04/11 01:18:39;;;;;;;1.58;1.08;;;;;;;;;;7399095;19;20405;-81
2022/04/11 01:21:08;;;;;;;1.80;1.13;;;;;;;;;;7401560;19;20010;-81
2022/04/11 01:23:34;;;;;;;1.77;1.13;;;;;;;;;;7399235;19;19999;-80
2022/04/11 01:25:59;;;;;;;1.33;1.05;;;;;;;;;;7401421;19;20002;-81
2022/04/11 01:28:25;;;;;;;1.35;1.20;;;;;;;;;;7399303;19;20368;-80
2022/04/11 01:30:54;;;;;;;3.05;1.23;;;;;;;;;;7397927;19;20331;-81
2022/04/11 01:33:24;;;;;;;1.52;1.13;;;;;;;;;;7398341;19;20003;-81
2022/04/11 01:35:49;;;;;;;1.67;1.30;;;;;;;;;;7397978;19;20449;-81
2022/04/11 01:38:15;;;;;;;3.40;1.20;;;;;;;;;;7401004;19;19998;-80
2022/04/11 01:40:54;;;;;;;2.10;1.42;;;;;;;;;;7403755;19;20010;-81
2022/04/11 01:43:20;;;;;;;2.42;1.17;;;;;;;;;;7398562;19;20019;-81
2022/04/11 01:45:46;;;;;;;4.03;1.25;;;;;;;;;;7398020;19;20042;-81
2022/04/11 01:48:11;;;;;;;5.00;2.67;;;;;;;;;;7399027;19;20002;-80
2022/04/11 01:50:37;;;;;;;3.20;1.30;;;;;;;;;;7399141;19;20091;-81
2022/04/11 01:53:06;;;;;;;2.78;1.40;;;;;;;;;;7398504;19;19998;-81
2022/04/11 01:55:31;;;;;;;2.47;1.20;;;;;;;;;;7397570;19;20030;-81
2022/04/11 01:57:57;;;;;;;1.98;1.23;;;;;;;;;;7397569;19;20523;-81
2022/04/11 02:00:22;;;;;;;2.72;1.20;;;;;;;;;;7396248;19;19995;-81
2022/04/11 02:02:47;;;;;;;2.67;1.42;;;;;;;;;;7401103;19;20485;-81
2022/04/11 02:05:14;;;;;;;2.25;1.52;;;;;;;;;;7397627;19;20418;-80
2022/04/11 02:07:39;;;;;;;1.27;1.10;;;;;;;;;;7396990;19;20014;-81
2022/04/11 02:10:05;;;;;;;0.80;0.80;;;;;;;;;;7396297;19;19990;-81
2022/04/11 02:12:30;;;;;;;1.50;1.00;;;;;;;;;;7398044;19;19994;-81
2022/04/11 02:14:56;;;;;;;1.10;1.00;;;;;;;;;;7394620;19;20508;-80
2022/04/11 02:17:21;;;;;;;1.83;1.10;;;;;;;;;;7398309;19;20026;-81
2022/04/11 02:19:46;;;;;;;2.50;1.52;;;;;;;;;;7397343;19;20009;-81
2022/04/11 02:22:12;;;;;;;1.30;1.08;;;;;;;;;;7398102;19;20009;-81
2022/04/11 02:24:37;;;;;;;1.65;0.88;;;;;;;;;;7397689;19;20074;-81
2022/04/11 02:27:03;;;;;;;1.02;0.73;;;;;;;;;;7394440;19;20007;-81
2022/04/11 02:29:28;;;;;;;1.13;1.02;;;;;;;;;;7401853;19;20069;-81
2022/04/11 02:31:54;;;;;;;3.30;1.33;;;;;;;;;;7397914;19;19998;-81
2022/04/11 02:34:19;;;;;;;2.15;1.30;;;;;;;;;;7396162;19;20351;-81
2022/04/11 02:36:44;;;;;;;1.70;1.10;;;;;;;;;;7396703;19;20014;-81
2022/04/11 02:39:10;;;;;;;1.33;1.00;;;;;;;;;;7400367;19;20010;-81
2022/04/11 02:41:35;;;;;;;1.83;1.13;;;;;;;;;;7394524;19;20006;-81
2022/04/11 02:44:00;;;;;;;2.88;1.25;;;;;;;;;;7398356;19;20001;-81
2022/04/11 02:46:25;;;;;;;2.05;1.23;;;;;;;;;;7398588;19;20002;-82
2022/04/11 02:48:51;;;;;;;1.75;1.13;;;;;;;;;;7394811;19;20474;-81
2022/04/11 02:51:16;;;;;;;2.25;1.33;;;;;;;;;;7399442;19;20003;-81
2022/04/11 02:53:41;;;;;;;1.30;1.00;;;;;;;;;;7398174;19;20026;-81
2022/04/11 02:56:06;;;;;;;2.45;1.27;;;;;;;;;;7398339;19;19998;-81
2022/04/11 02:58:32;;;;;;;1.83;1.20;;;;;;;;;;7396627;19;20001;-81
2022/04/11 03:00:57;;;;;;;2.13;1.17;;;;;;;;;;7395640;19;20012;-81
2022/04/11 03:03:22;;;;;;;1.88;1.13;;;;;;;;;;7397315;19;20482;-81
2022/04/11 03:05:47;;;;;;;2.95;1.38;;;;;;;;;;7394628;19;20062;-81
2022/04/11 03:08:13;;;;;;;1.90;1.23;;;;;;;;;;7399256;19;20446;-81
2022/04/11 03:10:38;;;;;;;2.90;1.55;;;;;;;;;;7405094;19;20007;-81
2022/04/11 03:13:03;;;;;;;1.63;1.15;;;;;;;;;;7405145;19;20352;-81
2022/04/11 03:15:28;;;;;;;2.22;1.40;;;;;;;;;;7402355;19;20001;-81
2022/04/11 03:17:54;;;;;;;2.53;1.50;;;;;;;;;;7407030;19;20006;-81
2022/04/11 03:20:19;;;;;;;3.17;1.65;;;;;;;;;;7403221;19;20019;-81
2022/04/11 03:22:44;;;;;;;2.63;1.23;;;;;;;;;;7404826;19;20023;-80
2022/04/11 03:25:10;;;;;;;2.10;1.25;;;;;;;;;;7400626;19;20003;-82
2022/04/11 03:27:35;;;;;;;1.58;1.15;;;;;;;;;;7402486;19;20013;-81
2022/04/11 03:30:01;;;;;;;1.60;1.10;;;;;;;;;;7402410;19;20011;-81
2022/04/11 03:32:26;;;;;;;1.88;1.20;;;;;;;;;;7403908;19;20001;-81
2022/04/11 03:34:51;;;;;;;1.73;1.08;;;;;;;;;;7399072;19;19994;-81
2022/04/11 03:37:17;;;;;;;2.10;1.40;;;;;;;;;;7402999;19;20009;-81
2022/04/11 03:39:42;;;;;;;1.80;1.15;;;;;;;;;;7404495;19;20002;-81
2022/04/11 03:42:08;;;;;;;2.13;1.55;;;;;;;;;;7401956;19;20485;-81
2022/04/11 03:44:35;;;;;;;1.92;1.30;;;;;;;;;;7400809;19;20499;-81
2022/04/11 03:47:00;;;;;;;2.03;1.38;;;;;;;;;;7402698;19;19999;-82
2022/04/11 03:49:25;;;;;;;3.55;1.60;;;;;;;;;;7401566;19;20482;-81
2022/04/11 03:51:51;;;;;;;1.75;1.20;;;;;;;;;;7400426;19;20596;-81
2022/04/11 03:54:16;;;;;;;1.77;1.25;;;;;;;;;;7401669;19;20361;-81
2022/04/11 03:56:42;;;;;;;1.95;1.25;;;;;;;;;;7403461;19;20027;-81
2022/04/11 03:59:07;;;;;;;2.33;1.45;;;;;;;;;;7399804;19;20002;-81
2022/04/11 04:01:32;;;;;;;4.55;1.73;;;;;;;;;;7402444;19;20015;-81
2022/04/11 04:03:58;;;;;;;2.03;1.35;;;;;;;;;;7401051;19;20036;-81
2022/04/11 04:06:23;;;;;;;1.95;1.38;;;;;;;;;;7401524;19;20118;-81
2022/04/11 04:08:48;;;;;;;2.53;1.48;;;;;;;;;;7402320;19;20002;-81
2022/04/11 04:11:14;;;;;;;2.08;1.42;;;;;;;;;;7402039;19;20022;-80
2022/04/11 04:13:39;;;;;;;4.90;1.75;;;;;;;;;;7401797;19;20322;-81
2022/04/11 04:16:05;;;;;;;2.45;1.60;;;;;;;;;;7401167;19;20003;-81
2022/04/11 04:18:30;;;;;;;3.80;1.98;;;;;;;;;;7398733;19;19995;-81
2022/04/11 04:20:55;;;;;;;2.25;1.58;;;;;;;;;;7394429;19;20228;-81
2022/04/11 04:23:21;;;;;;;2.10;1.63;;;;;;;;;;7399162;19;20010;-82
2022/04/11 04:25:46;;;;;;;3.90;2.15;;;;;;;;;;7394790;19;20513;-81
2022/04/11 04:28:13;;;;;;;2.47;1.52;;;;;;;;;;7398889;19;20003;-81
2022/04/11 04:30:38;;;;;;;3.53;1.77;;;;;;;;;;7402308;19;20332;-81
2022/04/11 04:33:04;;;;;;;2.03;1.35;;;;;;;;;;7401122;19;20339;-81
2022/04/11 04:35:29;;;;;;;3.08;1.65;;;;;;;;;;7399248;19;20014;-81
2022/04/11 04:37:54;;;;;;;4.03;1.90;;;;;;;;;;7402125;19;20028;-82
2022/04/11 04:40:20;;;;;;;3.00;1.65;;;;;;;;;;7398287;19;19995;-81
2022/04/11 04:42:45;;;;;;;3.30;1.58;;;;;;;;;;7397201;19;20010;-81
2022/04/11 04:45:12;;;;;;;3.15;1.75;;;;;;;;;;7398479;19;20307;-80
2022/04/11 04:47:37;;;;;;;2.17;1.63;;;;;;;;;;7400107;19;20012;-81
2022/04/11 04:50:03;;;;;;;2.95;1.70;;;;;;;;;;7398485;19;20038;-81
2022/04/11 04:52:28;;;;;;;4.43;1.90;;;;;;;;;;7399939;19;19995;-81
2022/04/11 04:54:54;;;;;;;2.88;1.73;;;;;;;;;;7397442;19;20458;-81
2022/04/11 04:57:19;;;;;;;3.28;1.80;;;;;;;;;;7401261;19;20002;-81
2022/04/11 04:59:44;;;;;;;1.95;1.50;;;;;;;;;;7400524;19;20003;-80
2022/04/11 05:02:09;;;;;;;4.03;2.58;;;;;;;;;;7397305;19;20462;-80
2022/04/11 05:04:35;;;;;;;4.20;1.85;;;;;;;;;;7397695;19;20003;-81
2022/04/11 05:07:00;;;;;;;3.03;1.60;;;;;;;;;;7398048;19;19995;-81
2022/04/11 05:09:25;;;;;;;1.92;1.50;;;;;;;;;;7398245;19;20002;-81
2022/04/11 05:11:50;;;;;;;3.63;2.13;;;;;;;;;;7396153;19;20006;-80
2022/04/11 05:14:16;;;;;;;3.10;1.70;;;;;;;;;;7400098;19;20347;-80
2022/04/11 05:16:41;;;;;;;2.55;1.63;;;;;;;;;;7399611;19;20002;-81
2022/04/11 05:19:06;;;;;;;2.88;1.90;;;;;;;;;;7398794;19;20010;-81
2022/04/11 05:21:31;;;;;;;4.18;2.17;;;;;;;;;;7397483;19;20093;-81
2022/04/11 05:23:57;;;;;;;3.65;1.92;;;;;;;;;;7398488;19;20014;-81
2022/04/11 05:26:22;;;;;;;3.33;2.28;;;;;;;;;;7399437;19;20013;-80
2022/04/11 05:28:48;;;;;;;2.65;1.92;;;;;;;;;;7396189;19;20001;-81
2022/04/11 05:31:15;;;;;;;3.00;1.73;;;;;;;;;;7399008;19;20030;-81
2022/04/11 05:33:40;;;;;;;2.83;1.90;;;;;;;;;;7400837;19;20517;-83
2022/04/11 05:36:05;;;;;;;2.60;1.85;;;;;;;;;;7399590;19;20015;-80
2022/04/11 05:38:30;;;;;;;3.58;1.58;;;;;;;;;;7395211;19;20006;-81
2022/04/11 05:40:56;;;;;;;1.83;1.45;;;;;;;;;;7396981;19;20001;-81
2022/04/11 05:43:21;;;;;;;3.03;1.63;;;;;;;;;;7399271;19;19995;-80
2022/04/11 05:45:47;;;;;;;2.70;1.98;;;;;;;;;;7396989;19;20003;-80
2022/04/11 05:48:12;;;;;;;2.75;1.75;;;;;;;;;;7401942;19;20002;-81
2022/04/11 05:50:37;;;;;;;2.50;1.73;;;;;;;;;;7402876;19;20018;-81
2022/04/11 05:53:03;;;;;;;4.22;1.95;;;;;;;;;;7401440;19;19991;-81
2022/04/11 05:55:29;;;;;;;4.53;2.28;;;;;;;;;;7397278;19;20043;-81
2022/04/11 05:57:54;;;;;;;3.58;1.77;;;;;;;;;;7399984;19;20002;-81
2022/04/11 06:00:20;;;;;;;2.63;1.83;;;;;;;;;;7397225;19;20010;-81
2022/04/11 06:02:46;;;;;;;3.28;1.95;;;;;;;;;;7401790;19;20023;-81
2022/04/11 06:05:11;;;;;;;4.60;2.17;;;;;;;;;;7401627;19;19987;-81
2022/04/11 06:07:37;;;;;;;2.30;1.65;;;;;;;;;;7403089;19;19998;-81
2022/04/11 06:10:04;;;;;;;3.88;2.10;;;;;;;;;;7402251;19;20006;-81
2022/04/11 06:12:29;;;;;;;3.28;1.85;;;;;;;;;;7410797;19;20020;-80
2022/04/11 06:14:55;;;;;;;5.70;2.50;;;;;;;;;;7421818;19;20007;-80
2022/04/11 06:17:23;;;;;;;2.42;1.95;;;;;;;;;;7422463;19;20014;-80
2022/04/11 06:19:53;;;;;;;5.13;2.17;;;;;;;;;;7420509;19;20003;-80
2022/04/11 06:22:18;;;;;;;2.83;2.13;;;;;;;;;;7421498;19;20023;-80
2022/04/11 06:24:44;;;;;;;4.20;2.15;;;;;;;;;;7394422;19;20330;-81
2022/04/11 06:27:09;;;;;;;3.67;1.83;;;;;;;;;;7397714;19;20003;-81
2022/04/11 06:29:35;;;;;;;3.63;2.17;;;;;;;;;;7394797;19;20448;-81
2022/04/11 06:32:04;;;;;;;3.60;1.95;;;;;;;;;;7397810;19;20023;-81
2022/04/11 06:34:29;;;;;;;4.15;2.10;;;;;;;;;;7396572;19;20141;-81
2022/04/11 06:36:55;;;;;;;3.63;2.08;;;;;;;;;;7398067;19;20014;-81
2022/04/11 06:39:20;;;;;;;4.85;2.47;;;;;;;;;;7397750;19;19999;-81
2022/04/11 06:41:45;;;;;;;3.13;2.15;;;;;;;;;;7400566;19;20016;-81
2022/04/11 06:44:11;;;;;;;3.88;2.15;;;;;;;;;;7395195;19;20015;-81
2022/04/11 06:46:36;;;;;;;3.33;2.30;;;;;;;;;;7396529;19;20037;-81
2022/04/11 06:49:01;;;;;;;3.30;2.05;;;;;;;;;;7396212;19;20021;-81
2022/04/11 06:51:26;;;;;;;2.67;1.73;;;;;;;;;;7397760;19;20002;-80
2022/04/11 06:53:52;;;;;;;2.85;1.52;;;;;;;;;;7396193;19;20754;-80
2022/04/11 06:56:17;;;;;;;2.25;1.55;;;;;;;;;;7394555;19;20005;-81
2022/04/11 06:58:42;;;;;;;1.80;1.40;;;;;;;;;;7395042;19;20006;-81
2022/04/11 07:01:08;;;;;;;5.53;2.10;;;;;;;;;;7397332;19;20474;-81
2022/04/11 07:03:33;;;;;;;5.75;3.13;;;;;;;;;;7397196;19;20018;-81
2022/04/11 07:05:58;;;;;;;3.80;2.15;;;;;;;;;;7395769;19;19999;-80
2022/04/11 07:08:23;;;;;;;6.72;2.80;;;;;;;;;;7397983;19;20027;-81
2022/04/11 07:10:49;;;;;;;3.88;1.80;;;;;;;;;;7398945;19;19999;-80
2022/04/11 07:13:14;;;;;;;2.88;1.90;;;;;;;;;;7404793;19;20028;-80
2022/04/11 07:15:39;;;;;;;2.15;1.40;;;;;;;;;;7401576;19;20042;-80
2022/04/11 07:18:05;;;;;;;3.95;1.77;;;;;;;;;;7396134;19;20011;-80
2022/04/11 07:20:30;;;;;;;2.60;1.70;;;;;;;;;;7397452;19;20006;-81
2022/04/11 07:22:55;;;;;;;2.75;1.90;;;;;;;;;;7398011;19;19995;-81
2022/04/11 07:25:23;;;;;;;2.45;2.00;;;;;;;;;;7395032;19;20307;-81
2022/04/11 07:27:48;;;;;;;2.17;1.65;;;;;;;;;;7399235;19;20005;-79
2022/04/11 07:30:14;;;;;;;2.75;1.90;;;;;;;;;;7404651;19;20003;-80
2022/04/11 07:32:39;;;;;;;4.68;1.90;;;;;;;;;;7400532;19;20014;-80
2022/04/11 07:35:05;;;;;;;3.50;2.13;;;;;;;;;;7397263;19;20327;-79
2022/04/11 07:37:33;;;;;;;2.67;1.88;;;;;;;;;;7395774;19;19991;-80
2022/04/11 07:39:59;;;;;;;2.33;1.63;;;;;;;;;;7394519;19;19999;-80
2022/04/11 07:42:24;;;;;;;2.83;1.80;;;;;;;;;;7391154;19;20325;-80
2022/04/11 07:44:49;;;;;;;3.72;2.20;;;;;;;;;;7399443;19;20010;-79
2022/04/11 07:47:15;;;;;;;2.10;1.80;;;;;;;;;;7396820;19;20002;-80
2022/04/11 07:49:40;;;;;;;3.42;1.92;;;;;;;;;;7393980;19;20427;-81
2022/04/11 07:52:06;;;;;;;4.28;1.52;;;;;;;;;;7394392;19;20003;-80
2022/04/11 07:54:32;;;;;;;2.22;1.65;;;;;;;;;;7396865;19;20011;-78
2022/04/11 07:56:57;;;;;;;1.95;1.67;;;;;;;;;;7404592;19;20044;-81
2022/04/11 07:59:22;;;;;;;2.47;1.60;;;;;;;;;;7401186;19;19994;-81
2022/04/11 08:01:47;;;;;;;3.22;1.83;;;;;;;;;;7404650;19;20014;-79
2022/04/11 08:04:13;;;;;;;2.40;1.65;;;;;;;;;;7402398;19;20312;-80
2022/04/11 08:06:38;;;;;;;3.33;2.05;;;;;;;;;;7403116;19;20027;-80
2022/04/11 08:09:03;;;;;;;4.43;2.40;;;;;;;;;;7401737;19;20029;-81
2022/04/11 08:11:28;;;;;;;7.30;3.25;;;;;;;;;;7402363;19;20019;-80
2022/04/11 08:13:54;;;;;;;6.93;2.63;;;;;;;;;;7405019;19;20005;-81
2022/04/11 08:16:19;;;;;;;3.13;2.38;;;;;;;;;;7403836;19;19998;-80
2022/04/11 08:18:44;;;;;;;5.82;2.20;;;;;;;;;;7398894;19;20487;-80
2022/04/11 08:21:10;;;;;;;3.83;1.80;;;;;;;;;;7401764;19;20003;-80
2022/04/11 08:23:35;;;;;;;2.40;1.58;;;;;;;;;;7401238;19;20107;-80
2022/04/11 08:26:00;;;;;;;2.70;1.73;;;;;;;;;;7399544;19;20003;-81
2022/04/11 08:28:26;;;;;;;5.57;2.10;;;;;;;;;;7401626;19;19998;-81
2022/04/11 08:30:51;;;;;;;2.38;1.70;;;;;;;;;;7402609;19;20003;-80
2022/04/11 08:33:17;;;;;;;2.30;1.60;;;;;;;;;;7399482;19;20470;-81
2022/04/11 08:35:42;;;;;;;3.40;2.13;;;;;;;;;;7402617;19;20012;-79
2022/04/11 08:38:08;;;;;;;3.10;1.80;;;;;;;;;;7402569;19;20581;-79
2022/04/11 08:40:33;;;;;;;3.53;1.73;;;;;;;;;;7400985;19;19998;-80
2022/04/11 08:42:59;;;;;;;6.28;1.80;;;;;;;;;;7402400;19;19987;-81
2022/04/11 08:45:27;;;;;;;3.78;2.03;;;;;;;;;;7399282;19;20019;-81
2022/04/11 08:47:56;;;;;;;4.43;1.83;;;;;;;;;;7402645;19;19999;-80
2022/04/11 08:50:23;;;;;;;3.40;1.88;;;;;;;;;;7402862;19;20438;-80
2022/04/11 08:52:50;;;;;;;2.75;1.85;;;;;;;;;;7403752;19;19991;-80
2022/04/11 08:55:15;;;;;;;3.47;1.85;;;;;;;;;;7418341;19;20002;-79
2022/04/11 08:57:40;;;;;;;2.45;1.77;;;;;;;;;;7411109;19;20025;-81
2022/04/11 09:00:12;;;;;;;9.63;2.80;;;;;;;;;;7400737;19;20026;-80
2022/04/11 09:02:38;;;;;;;8.63;2.78;;;;;;;;;;7403781;19;20019;-81
2022/04/11 09:05:04;;;;;;;5.85;3.20;;;;;;;;;;7400849;19;20339;-80
2022/04/11 09:07:51;;;;;;;6.07;2.45;;;;;;;;;;7402747;19;20029;-80
2022/04/11 09:10:19;;;;;;;3.30;1.92;;;;;;;;;;7400986;19;20032;-80
2022/04/11 09:12:47;;;;;;;3.00;2.15;;;;;;;;;;7403320;19;20328;-80
2022/04/11 09:15:12;;;;;;;14.35;2.15;;;;;;;;;;7401776;19;20361;-80
2022/04/11 09:17:45;;;;;;;5.93;2.05;;;;;;;;;;7401068;19;20002;-80
2022/04/11 09:20:13;;;;;;;2.88;1.75;;;;;;;;;;7396906;19;20010;-81
2022/04/11 09:22:40;;;;;;;2.72;1.67;;;;;;;;;;7400970;19;19998;-79
2022/04/11 09:25:09;;;;;;;3.33;2.10;;;;;;;;;;7394213;19;20496;-80
2022/04/11 09:27:34;;;;;;;2.85;2.08;;;;;;;;;;7401307;19;20022;-81
2022/04/11 09:30:00;;;;;;;3.35;2.05;;;;;;;;;;7401473;19;19998;-79
2022/04/11 09:32:25;;;;;;;4.38;3.00;;;;;;;;;;7402490;19;20013;-80
2022/04/11 09:34:54;;;;;;;4.45;2.33;;;;;;;;;;7399756;19;20024;-80
2022/04/11 09:37:20;;;;;;;7.25;2.45;;;;;;;;;;7401148;19;20007;-79
2022/04/11 09:39:54;;;;;;;3.83;2.45;;;;;;;;;;7402132;19;20005;-80
2022/04/11 09:42:29;;;;;;;7.75;2.58;;;;;;;;;;7400395;19;20001;-81
2022/04/11 09:44:59;;;;;;;3.15;2.20;;;;;;;;;;7397975;19;19995;-80
2022/04/11 09:47:24;;;;;;;14.85;6.90;;;;;;;;;;7400231;19;20490;-80
2022/04/11 09:49:50;;;;;;;7.28;3.60;;;;;;;;;;7396832;19;20010;-79
2022/04/11 09:52:15;;;;;;;9.23;3.47;;;;;;;;;;7397070;19;20296;-80
2022/04/11 09:54:42;;;;;;;7.22;3.70;;;;;;;;;;7398299;19;20007;-80
2022/04/11 09:57:09;;;;;;;2.70;1.98;;;;;;;;;;7399963;19;20316;-81
2022/04/11 09:59:35;;;;;;;3.55;2.40;;;;;;;;;;7395020;19;20007;-80
2022/04/11 10:02:01;;;;;;;3.22;2.10;;;;;;;;;;7398516;19;19998;-80
2022/04/11 10:04:27;;;;;;;2.53;2.13;;;;;;;;;;7398019;19;20030;-80
2022/04/11 10:06:53;;;;;;;2.63;1.90;;;;;;;;;;7398306;19;20023;-81
2022/04/11 10:09:21;;;;;;;2.72;1.85;;;;;;;;;;7397232;19;20435;-80
2022/04/11 10:11:47;;;;;;;3.83;1.60;;;;;;;;;;7396508;19;20009;-80
2022/04/11 10:14:23;;;;;;;3.10;1.92;;;;;;;;;;7398935;19;20080;-80
2022/04/11 10:16:50;;;;;;;3.28;2.00;;;;;;;;;;7398315;19;20042;-81
2022/04/11 10:19:15;;;;;;;9.52;1.98;;;;;;;;;;7395381;19;19998;-81
2022/04/11 10:21:42;;;;;;;3.20;1.65;;;;;;;;;;7395729;19;20457;-81
2022/04/11 10:24:33;;;;;;;4.30;1.95;;;;;;;;;;7398063;19;20030;-81
2022/04/11 10:27:23;;;;;;;3.63;1.80;;;;;;;;;;7401655;19;20011;-80
2022/04/11 10:29:50;;;;;;;3.25;2.13;;;;;;;;;;7395493;19;20022;-80
2022/04/11 10:32:21;;;;;;;2.50;1.95;;;;;;;;;;7395737;19;20003;-79
2022/04/11 10:34:55;;;;;;;2.33;1.40;;;;;;;;;;7397236;19;20022;-81
2022/04/11 10:37:23;;;;;;;2.45;1.50;;;;;;;;;;7395431;19;20374;-82
2022/04/11 10:39:50;;;;;;;3.35;1.92;;;;;;;;;;7394698;19;20358;-81
2022/04/11 10:42:24;;;;;;;2.70;1.77;;;;;;;;;;7396623;19;20072;-81
2022/04/11 10:44:53;;;;;;;2.67;1.63;;;;;;;;;;7398463;19;20006;-81
2022/04/11 10:47:26;;;;;;;2.25;1.65;;;;;;;;;;7412851;19;20008;-80
2022/04/11 10:49:53;;;;;;;2.13;1.60;;;;;;;;;;7403332;19;19998;-82
2022/04/11 10:52:28;;;;;;;2.97;1.88;;;;;;;;;;7400007;19;20095;-81
2022/04/11 10:54:55;;;;;;;4.35;1.95;;;;;;;;;;7398022;19;20015;-81
2022/04/11 10:57:33;;;;;;;3.67;2.55;;;;;;;;;;7398380;19;20003;-81
2022/04/11 11:00:19;;;;;;;3.35;1.70;;;;;;;;;;7395721;19;19998;-81
2022/04/11 11:02:50;;;;;;;1.70;1.48;;;;;;;;;;7399959;19;20007;-80
2022/04/11 11:05:36;;;;;;;1.90;1.38;;;;;;;;;;7396116;19;20007;-79
2022/04/11 11:08:13;;;;;;;1.90;1.25;;;;;;;;;;7399616;19;20091;-80
2022/04/11 11:10:59;;;;;;;3.38;2.10;;;;;;;;;;7400911;19;20529;-81
2022/04/11 11:13:41;;;;;;;1.88;1.50;;;;;;;;;;7400615;19;19994;-80
2022/04/11 11:16:06;;;;;;;2.88;1.73;;;;;;;;;;7395672;19;20006;-81
2022/04/11 11:21:16;;;;;;;3.95;1.92;;;;;;;;;;7396192;19;20311;-80
2022/04/11 11:24:08;;;;;;;2.90;1.60;;;;;;;;;;7397476;19;19999;-81
2022/04/11 11:26:45;;;;;;;3.35;1.65;;;;;;;;;;7394384;19;20002;-80
2022/04/11 11:29:15;;;;;;;2.53;1.80;;;;;;;;;;7398338;19;20006;-82
2022/04/11 11:31:40;;;;;;;5.45;2.80;;;;;;;;;;7402439;19;20006;-82
2022/04/11 11:34:10;;;;;;;3.88;2.45;;;;;;;;;;7408386;19;20019;-79
2022/04/11 11:36:37;;;;;;;3.05;1.92;;;;;;;;;;7407629;19;20433;-81
2022/04/11 11:39:12;;;;;;;3.10;1.80;;;;;;;;;;7406111;19;20103;-81
2022/04/11 11:41:42;;;;;;;2.92;1.83;;;;;;;;;;7403133;19;20048;-80
2022/04/11 11:44:08;;;;;;;2.05;1.65;;;;;;;;;;7409075;19;20018;-82
2022/04/11 11:46:53;;;;;;;2.08;1.65;;;;;;;;;;7403769;19;19999;-81
2022/04/11 11:49:19;;;;;;;1.50;1.40;;;;;;;;;;7405653;19;20018;-81
2022/04/11 11:51:45;;;;;;;2.20;1.58;;;;;;;;;;7402569;19;19995;-80
2022/04/11 11:54:11;;;;;;;2.13;1.52;;;;;;;;;;7401855;19;20377;-80
2022/04/11 11:56:39;;;;;;;2.65;1.80;;;;;;;;;;7404737;19;20182;-80
2022/04/11 11:59:05;;;;;;;2.05;1.52;;;;;;;;;;7400470;19;20015;-80
2022/04/11 12:01:30;;;;;;;2.25;1.70;;;;;;;;;;7402528;19;20414;-82
2022/04/11 12:06:40;;;;;;;4.38;2.00;;;;;;;;;;7400448;19;20027;-79
2022/04/11 12:09:06;;;;;;;5.63;2.45;;;;;;;;;;7400663;19;19999;-81
2022/04/11 12:11:31;;;;;;;4.05;2.00;;;;;;;;;;7402350;19;20474;-80
2022/04/11 12:14:02;;;;;;;3.20;1.75;;;;;;;;;;7413898;19;20029;-79
2022/04/11 12:16:29;;;;;;;4.20;1.80;;;;;;;;;;7406076;19;20010;-80
2022/04/11 12:19:00;;;;;;;2.10;1.88;;;;;;;;;;7402378;19;20023;-80
2022/04/11 12:21:32;;;;;;;5.85;1.83;;;;;;;;;;7398791;19;20061;-80
2022/04/11 12:23:58;;;;;;;1.83;1.73;;;;;;;;;;7400564;19;20006;-80
2022/04/11 12:26:38;;;;;;;3.10;1.73;;;;;;;;;;7403110;19;20007;-81
2022/04/11 12:29:14;;;;;;;2.25;1.83;;;;;;;;;;7402781;19;20010;-80
2022/04/11 12:32:01;;;;;;;3.35;1.70;;;;;;;;;;7400845;19;20003;-80
2022/04/11 12:34:33;;;;;;;3.10;1.67;;;;;;;;;;7399498;19;20062;-81
2022/04/11 12:37:02;;;;;;;4.63;1.85;;;;;;;;;;7402166;19;20006;-81
2022/04/11 12:39:28;;;;;;;3.35;2.10;;;;;;;;;;7399451;19;20027;-81
2022/04/11 12:41:55;;;;;;;2.50;1.70;;;;;;;;;;7404877;19;20006;-80
2022/04/11 12:44:34;;;;;;;2.28;1.77;;;;;;;;;;7400493;19;20038;-81
2022/04/11 12:47:00;;;;;;;3.53;1.80;;;;;;;;;;7400406;19;20454;-80
2022/04/11 12:49:41;;;;;;;3.42;2.05;;;;;;;;;;7403228;19;20022;-81
2022/04/11 12:52:07;;;;;;;2.42;2.08;;;;;;;;;;7400251;19;20013;-79
2022/04/11 12:55:02;;;;;;;2.55;1.50;;;;;;;;;;7400796;19;20006;-81
2022/04/11 12:57:31;;;;;;;2.47;1.83;;;;;;;;;;7400244;19;20002;-80
2022/04/11 13:00:10;;;;;;;2.83;2.03;;;;;;;;;;7399985;19;20083;-80
2022/04/11 13:02:36;;;;;;;3.58;2.10;;;;;;;;;;7400910;19;20006;-80
2022/04/11 13:05:04;;;;;;;2.10;1.80;;;;;;;;;;7401918;19;20009;-79
2022/04/11 13:07:29;;;;;;;3.35;1.77;;;;;;;;;;7404006;19;20577;-80
2022/04/11 13:09:54;;;;;;;3.63;2.40;;;;;;;;;;7402769;19;20003;-81
2022/04/11 13:12:21;;;;;;;3.28;2.30;;;;;;;;;;7399496;19;20006;-80
2022/04/11 13:14:51;;;;;;;3.65;2.42;;;;;;;;;;7399138;19;20304;-79
2022/04/11 13:20:02;;;;;;;2.95;2.20;;;;;;;;;;7399531;19;20009;-80
2022/04/11 13:22:27;;;;;;;4.72;1.85;;;;;;;;;;7399548;19;20042;-81
2022/04/11 13:24:55;;;;;;;2.38;1.75;;;;;;;;;;7395794;19;20776;-81
2022/04/11 13:27:21;;;;;;;3.63;2.53;;;;;;;;;;7396085;19;20292;-81
2022/04/11 13:29:47;;;;;;;3.08;2.40;;;;;;;;;;7397495;19;20001;-78
2022/04/11 13:32:13;;;;;;;4.25;2.13;;;;;;;;;;7397522;19;20006;-79
2022/04/11 13:34:38;;;;;;;3.58;1.98;;;;;;;;;;7393458;19;20022;-78
2022/04/11 13:37:05;;;;;;;1.92;1.73;;;;;;;;;;7396820;19;20011;-78
2022/04/11 13:39:30;;;;;;;4.53;1.75;;;;;;;;;;7394533;19;20029;-79
2022/04/11 13:41:56;;;;;;;2.20;1.83;;;;;;;;;;7394896;19;19995;-80
2022/04/11 13:44:21;;;;;;;3.47;2.10;;;;;;;;;;7394699;19;20025;-79
2022/04/11 13:46:47;;;;;;;4.78;2.00;;;;;;;;;;7394501;19;20037;-80
2022/04/11 13:49:13;;;;;;;3.47;1.83;;;;;;;;;;7395351;19;20054;-79
2022/04/11 13:51:40;;;;;;;2.75;1.70;;;;;;;;;;7401528;19;19998;-79
2022/04/11 13:54:06;;;;;;;2.00;1.60;;;;;;;;;;7399748;19;20018;-79
2022/04/11 13:56:33;;;;;;;1.73;1.60;;;;;;;;;;7393464;19;20062;-80
2022/04/11 13:58:58;;;;;;;3.13;1.75;;;;;;;;;;7391054;19;20006;-79
2022/04/11 14:01:24;;;;;;;4.05;2.55;;;;;;;;;;7397485;19;20018;-79
2022/04/11 14:03:50;;;;;;;8.88;4.65;;;;;;;;;;7396680;19;20012;-82
2022/04/11 14:06:16;;;;;;;5.82;2.38;;;;;;;;;;7399120;19;20003;-80
2022/04/11 14:08:41;;;;;;;2.97;1.95;;;;;;;;;;7400328;19;19998;-80
2022/04/11 14:11:06;;;;;;;2.50;1.95;;;;;;;;;;7399075;19;20111;-81
2022/04/11 14:13:34;;;;;;;3.60;2.22;;;;;;;;;;7394197;19;19998;-80
2022/04/11 14:15:59;;;;;;;2.30;1.70;;;;;;;;;;7393404;19;20006;-79
2022/04/11 14:18:25;;;;;;;2.78;1.65;;;;;;;;;;7399102;19;20010;-80
2022/04/11 14:20:50;;;;;;;2.50;1.58;;;;;;;;;;7400112;19;20353;-79
2022/04/11 14:23:19;;;;;;;2.45;1.40;;;;;;;;;;7393059;19;20023;-78
2022/04/11 14:25:45;;;;;;;2.45;1.70;;;;;;;;;;7396115;19;20003;-81
2022/04/11 14:28:10;;;;;;;3.47;2.05;;;;;;;;;;7395620;19;20007;-79
2022/04/11 14:30:38;;;;;;;3.97;2.35;;;;;;;;;;7397356;19;20002;-80
2022/04/11 14:33:03;;;;;;;6.35;3.60;;;;;;;;;;7398086;19;20003;-80
2022/04/11 14:35:29;;;;;;;4.22;1.73;;;;;;;;;;7397091;19;20034;-79
2022/04/11 14:37:56;;;;;;;2.50;1.80;;;;;;;;;;7396040;19;20003;-81
2022/04/11 14:40:22;;;;;;;1.90;1.50;;;;;;;;;;7397523;19;20112;-80
2022/04/11 14:42:48;;;;;;;3.20;2.00;;;;;;;;;;7397054;19;20473;-79
2022/04/11 14:45:13;;;;;;;1.70;1.60;;;;;;;;;;7418510;19;19998;-79
2022/04/11 14:47:39;;;;;;;3.38;1.90;;;;;;;;;;7420886;19;20032;-79
2022/04/11 14:50:04;;;;;;;3.22;2.10;;;;;;;;;;7419763;19;19987;-79